createdAt,value
2023-01-13T00:00:39.252Z,17.36
2023-01-13T00:10:46.595Z,17.36
2023-01-13T00:20:53.884Z,17.36
2023-01-13T00:31:01.295Z,17.35
2023-01-13T00:41:08.029Z,17.36
2023-01-13T00:51:15.281Z,17.36
2023-01-13T01:01:22.767Z,17.35
2023-01-13T01:11:29.989Z,17.35
2023-01-13T01:21:36.496Z,17.35
2023-01-13T01:31:43.545Z,17.38
2023-01-13T01:41:50.497Z,17.38
2023-01-13T01:51:57.548Z,17.36
2023-01-13T02:02:06.247Z,17.36
2023-01-13T02:12:13.943Z,17.38
2023-01-13T02:22:21.944Z,17.35
2023-01-13T02:32:28.628Z,17.40
2023-01-13T02:42:35.905Z,17.38
2023-01-13T02:52:42.780Z,17.38
2023-01-13T03:02:49.688Z,17.38
2023-01-13T03:12:56.923Z,17.36
2023-01-13T03:23:03.520Z,17.40
2023-01-13T03:33:10.894Z,17.36
2023-01-13T03:43:17.805Z,17.35
2023-01-13T03:53:24.571Z,17.35
2023-01-13T04:03:31.905Z,17.40
2023-01-13T04:13:38.679Z,17.36
2023-01-13T04:23:45.761Z,17.38
2023-01-13T04:33:53.248Z,17.35
2023-01-13T04:44:00.373Z,17.38
2023-01-13T04:54:07.898Z,17.38
2023-01-13T05:04:15.463Z,17.34
2023-01-13T05:14:22.054Z,17.34
2023-01-13T05:24:28.939Z,17.35
2023-01-13T05:34:36.524Z,17.35
2023-01-13T05:44:43.433Z,17.35
2023-01-13T05:54:50.582Z,17.35
2023-01-13T06:04:57.200Z,17.36
2023-01-13T06:15:03.359Z,17.38
2023-01-13T06:25:10.683Z,17.31
2023-01-13T06:35:17.918Z,17.35
2023-01-13T06:45:24.791Z,17.34
2023-01-13T06:55:31.369Z,17.34
2023-01-13T07:05:38.540Z,17.28
2023-01-13T07:15:45.458Z,17.29
2023-01-13T07:25:53.092Z,17.29
2023-01-13T07:35:59.861Z,17.29
2023-01-13T07:46:07.137Z,17.28
2023-01-13T07:56:14.161Z,17.29
2023-01-13T08:06:21.161Z,17.21
2023-01-13T08:16:28.029Z,17.21
2023-01-13T08:26:34.939Z,16.84
2023-01-13T08:36:42.256Z,16.88
2023-01-13T08:46:49.211Z,16.88
2023-01-13T08:56:56.237Z,16.95
2023-01-13T09:07:02.985Z,17.02
2023-01-13T09:17:10.108Z,17.05
2023-01-13T09:27:17.464Z,17.09
2023-01-13T09:37:24.448Z,17.14
2023-01-13T09:47:31.427Z,17.28
2023-01-13T09:57:38.655Z,17.28
2023-01-13T10:07:45.411Z,17.41
2023-01-13T10:17:52.716Z,17.45
2023-01-13T10:27:59.451Z,17.45
2023-01-13T10:38:06.573Z,17.47
2023-01-13T10:48:13.780Z,17.35
2023-01-13T10:58:21.099Z,17.35
2023-01-13T11:08:28.674Z,17.30
2023-01-13T11:18:35.893Z,17.30
2023-01-13T11:28:42.675Z,17.35
2023-01-13T11:38:50.015Z,17.13
2023-01-13T11:48:56.936Z,17.13
2023-01-13T11:59:03.932Z,17.16
2023-01-13T12:09:10.859Z,17.20
2023-01-13T12:19:17.985Z,17.23
2023-01-13T12:29:25.389Z,17.23
2023-01-13T12:39:31.995Z,17.23
2023-01-13T12:49:39.269Z,17.26
2023-01-13T12:59:46.052Z,17.26
2023-01-13T13:09:53.159Z,17.31
2023-01-13T13:19:59.646Z,17.28
2023-01-13T13:30:06.355Z,17.28
2023-01-13T13:40:13.682Z,17.31
2023-01-13T13:50:20.677Z,17.31
2023-01-13T14:00:27.591Z,17.33
2023-01-13T14:10:34.789Z,17.33
2023-01-13T14:20:42.947Z,17.26
2023-01-13T14:30:49.776Z,17.26
2023-01-13T14:40:56.659Z,17.26
2023-01-13T14:51:03.649Z,17.23
2023-01-13T15:01:10.783Z,17.23
2023-01-13T15:11:18.227Z,17.20
2023-01-13T15:21:25.683Z,17.20
2023-01-13T15:31:32.645Z,17.19
2023-01-13T15:41:39.615Z,17.19
2023-01-13T15:51:46.917Z,17.16
2023-01-13T16:01:54.914Z,17.16
2023-01-13T16:12:02.369Z,17.12
2023-01-13T16:22:09.067Z,17.14
2023-01-13T16:32:16.227Z,17.12
2023-01-13T16:42:23.329Z,17.12
2023-01-13T16:52:31.179Z,17.12
2023-01-13T17:02:38.226Z,17.13
2023-01-13T17:12:45.219Z,17.13
2023-01-13T17:22:58.187Z,17.07
2023-01-13T17:33:05.723Z,17.07
2023-01-13T17:43:13.577Z,17.11
2023-01-13T17:53:20.288Z,17.06
2023-01-13T18:03:27.794Z,17.02
2023-01-13T18:13:34.507Z,17.02
2023-01-13T18:23:41.650Z,17.04
2023-01-13T18:33:48.834Z,17.00
2023-01-13T18:43:55.918Z,17.00
2023-01-13T18:54:02.602Z,17.00
2023-01-13T19:04:10.031Z,16.92
2023-01-13T19:14:17.209Z,16.95
2023-01-13T19:24:24.697Z,16.95
2023-01-13T19:34:31.690Z,16.97
2023-01-13T19:44:38.948Z,16.92
2023-01-13T19:54:46.261Z,16.98
2023-01-13T20:04:54.054Z,16.98
2023-01-13T20:15:00.956Z,16.97
2023-01-13T20:25:08.289Z,16.93
2023-01-13T20:35:15.379Z,16.95
2023-01-13T20:45:21.979Z,16.95
2023-01-13T20:55:29.039Z,16.95
2023-01-13T21:05:36.727Z,16.95
2023-01-13T21:15:43.122Z,16.95
2023-01-13T21:25:50.109Z,16.92
2023-01-13T21:35:57.385Z,16.93
2023-01-13T21:46:05.695Z,16.91
2023-01-13T21:56:12.779Z,16.91
2023-01-13T22:06:19.920Z,16.92
2023-01-13T22:16:26.684Z,16.92
2023-01-13T22:26:33.911Z,16.93
2023-01-13T22:36:40.981Z,16.91
2023-01-13T22:46:47.885Z,16.90
2023-01-13T22:56:55.004Z,16.90
2023-01-13T23:07:02.121Z,16.90
2023-01-13T23:17:09.898Z,16.90
2023-01-13T23:27:17.523Z,16.88
2023-01-13T23:37:25.187Z,16.88
2023-01-13T23:47:32.379Z,16.88
2023-01-13T23:57:39.190Z,16.88
